createdAt,value
2023-01-07T00:04:00.959Z,9.82
2023-01-07T00:09:03.651Z,10.55
2023-01-07T00:14:07.282Z,11.07
2023-01-07T00:19:12.101Z,10.95
2023-01-07T00:24:13.957Z,11.00
2023-01-07T00:29:17.031Z,10.75
2023-01-07T00:34:23.490Z,10.10
2023-01-07T00:39:25.001Z,10.48
2023-01-07T00:44:26.454Z,9.57
2023-01-07T00:49:27.942Z,9.90
2023-01-07T00:54:29.441Z,10.50
2023-01-07T00:59:30.914Z,10.27
2023-01-07T01:04:32.327Z,10.77
2023-01-07T01:09:33.779Z,10.80
2023-01-07T01:14:35.206Z,10.52
2023-01-07T01:19:36.631Z,10.65
2023-01-07T01:24:38.454Z,11.10
2023-01-07T01:29:39.866Z,11.18
2023-01-07T01:34:41.336Z,11.82
2023-01-07T01:39:42.749Z,11.02
2023-01-07T01:44:48.417Z,11.30
2023-01-07T01:50:13.017Z,11.48
2023-01-07T01:55:16.646Z,10.32
2023-01-07T02:00:18.117Z,10.15
2023-01-07T02:05:19.599Z,9.98
2023-01-07T02:10:22.531Z,9.23
2023-01-07T02:15:33.320Z,9.45
2023-01-07T02:20:47.649Z,8.02
2023-01-07T02:26:07.983Z,8.07
2023-01-07T02:31:18.378Z,8.15
2023-01-07T02:36:38.594Z,8.15
2023-01-07T02:46:44.414Z,8.70
2023-01-07T02:51:46.275Z,8.30
2023-01-07T02:56:50.560Z,9.07
2023-01-07T03:01:57.517Z,9.20
2023-01-07T03:07:17.229Z,9.43
2023-01-07T03:12:42.627Z,9.43
2023-01-07T03:18:04.582Z,10.10
2023-01-07T03:23:07.845Z,9.50
2023-01-07T03:28:10.840Z,10.07
2023-01-07T03:33:14.905Z,10.02
2023-01-07T03:38:17.672Z,10.23
2023-01-07T03:43:20.470Z,10.63
2023-01-07T03:48:21.892Z,11.35
2023-01-07T03:53:23.282Z,10.88
2023-01-07T03:58:24.689Z,11.57
2023-01-07T04:03:26.933Z,11.18
2023-01-07T04:08:28.369Z,10.95
2023-01-07T04:13:29.810Z,11.90
2023-01-07T04:18:31.237Z,10.50
2023-01-07T04:23:32.746Z,10.85
2023-01-07T04:28:34.284Z,10.07
2023-01-07T04:33:36.059Z,10.27
2023-01-07T04:38:37.537Z,9.90
2023-01-07T04:43:38.974Z,9.93
2023-01-07T04:48:40.483Z,10.18
2023-01-07T04:53:41.932Z,10.73
2023-01-07T04:58:43.962Z,9.75
2023-01-07T05:03:45.484Z,8.93
2023-01-07T05:08:46.938Z,8.50
2023-01-07T05:13:51.301Z,8.80
2023-01-07T05:18:52.722Z,8.73
2023-01-07T05:23:54.602Z,8.75
2023-01-07T05:28:56.063Z,8.45
2023-01-07T05:33:57.489Z,8.50
2023-01-07T05:38:58.912Z,8.82
2023-01-07T05:44:00.859Z,8.82
2023-01-07T05:49:02.289Z,9.02
2023-01-07T05:54:03.749Z,8.73
2023-01-07T05:59:05.208Z,8.23
2023-01-07T06:04:07.643Z,8.75
2023-01-07T06:09:09.108Z,8.07
2023-01-07T06:14:10.596Z,8.77
2023-01-07T06:19:12.119Z,9.25
2023-01-07T06:24:13.544Z,8.60
2023-01-07T06:29:15.073Z,9.20
2023-01-07T06:34:16.605Z,9.85
2023-01-07T06:39:18.048Z,8.20
2023-01-07T06:44:19.448Z,8.43
2023-01-07T06:49:20.864Z,8.65
2023-01-07T06:54:22.310Z,8.07
2023-01-07T06:59:23.716Z,7.45
2023-01-07T07:04:25.194Z,7.40
2023-01-07T07:09:26.671Z,7.18
2023-01-07T07:14:28.119Z,6.82
2023-01-07T07:19:29.577Z,6.72
2023-01-07T07:24:30.986Z,7.45
2023-01-07T07:29:32.470Z,6.28
2023-01-07T07:34:35.804Z,5.95
2023-01-07T07:39:37.781Z,5.55
2023-01-07T07:44:39.203Z,5.75
2023-01-07T07:49:40.648Z,5.93
2023-01-07T07:54:42.685Z,4.88
2023-01-07T07:59:44.164Z,5.13
2023-01-07T08:04:45.949Z,4.72
2023-01-07T08:09:47.430Z,4.75
2023-01-07T08:14:48.876Z,4.88
2023-01-07T08:19:50.302Z,4.00
2023-01-07T08:24:51.792Z,4.10
2023-01-07T08:29:53.627Z,4.00
2023-01-07T08:34:55.959Z,3.53
2023-01-07T08:39:57.435Z,3.58
2023-01-07T08:44:58.870Z,3.45
2023-01-07T08:50:00.430Z,3.10
2023-01-07T08:55:01.852Z,3.25
2023-01-07T09:00:03.405Z,2.80
2023-01-07T09:05:06.054Z,2.97
2023-01-07T09:10:08.544Z,3.22
2023-01-07T09:15:10.301Z,2.40
2023-01-07T09:20:11.765Z,2.40
2023-01-07T09:25:13.354Z,2.30
2023-01-07T09:30:15.095Z,2.10
2023-01-07T09:35:16.583Z,2.03
2023-01-07T09:40:20.736Z,2.20
2023-01-07T09:45:40.977Z,2.20
2023-01-07T09:56:11.816Z,1.98
2023-01-07T10:01:24.941Z,2.17
2023-01-07T10:06:42.321Z,2.00
2023-01-07T10:11:47.574Z,1.70
2023-01-07T10:16:57.647Z,1.85
2023-01-07T10:22:02.565Z,1.90
2023-01-07T10:27:07.214Z,2.13
2023-01-07T10:32:13.612Z,1.70
2023-01-07T10:37:34.919Z,1.75
2023-01-07T10:42:42.748Z,1.67
2023-01-07T10:47:53.995Z,1.52
2023-01-07T10:52:55.457Z,1.70
2023-01-07T10:57:56.913Z,1.65
2023-01-07T11:02:59.783Z,1.60
2023-01-07T11:08:04.443Z,1.70
2023-01-07T11:13:14.139Z,1.40
2023-01-07T11:18:18.764Z,1.80
2023-01-07T11:23:32.164Z,1.50
2023-01-07T11:28:33.816Z,1.30
2023-01-07T11:34:02.622Z,1.27
2023-01-07T11:39:09.357Z,1.40
2023-01-07T11:44:15.477Z,1.60
2023-01-07T11:49:27.766Z,1.55
2023-01-07T11:54:29.607Z,1.42
2023-01-07T11:59:31.086Z,1.50
2023-01-07T12:04:33.803Z,1.50
2023-01-07T12:09:38.098Z,1.48
2023-01-07T12:14:40.849Z,1.58
2023-01-07T12:19:51.587Z,1.52
2023-01-07T12:25:00.036Z,1.73
2023-01-07T12:30:05.271Z,1.50
2023-01-07T12:35:16.323Z,1.70
2023-01-07T12:40:21.155Z,1.70
2023-01-07T12:45:36.481Z,1.52
2023-01-07T12:50:42.672Z,1.75
2023-01-07T12:55:49.814Z,1.55
2023-01-07T13:01:00.422Z,1.88
2023-01-07T13:06:06.996Z,1.63
2023-01-07T13:11:45.840Z,1.70
2023-01-07T13:16:47.337Z,1.55
2023-01-07T13:21:49.602Z,1.58
2023-01-07T13:26:57.925Z,2.00
2023-01-07T13:32:17.875Z,1.80
2023-01-07T13:37:19.326Z,1.70
2023-01-07T13:42:29.910Z,2.10
2023-01-07T13:47:50.897Z,1.65
2023-01-07T13:52:56.278Z,1.67
2023-01-07T13:57:58.001Z,1.70
2023-01-07T14:02:59.572Z,1.83
2023-01-07T14:08:02.199Z,1.77
2023-01-07T14:13:11.517Z,1.88
2023-01-07T14:18:18.997Z,1.70
2023-01-07T14:23:38.507Z,1.80
2023-01-07T14:28:53.227Z,1.92
2023-01-07T14:34:04.943Z,1.85
2023-01-07T14:39:26.358Z,1.90
2023-01-07T14:44:29.075Z,2.13
2023-01-07T14:49:30.522Z,2.13
2023-01-07T14:54:35.103Z,1.83
2023-01-07T14:59:42.818Z,2.00
2023-01-07T15:04:50.332Z,1.90
2023-01-07T15:10:15.439Z,1.80
2023-01-07T15:15:40.157Z,1.98
2023-01-07T15:20:44.435Z,2.00
2023-01-07T15:25:45.903Z,1.90
2023-01-07T15:30:50.497Z,2.00
2023-01-07T15:35:52.059Z,2.22
2023-01-07T15:40:54.344Z,2.13
2023-01-07T15:46:00.239Z,2.17
2023-01-07T15:51:01.718Z,2.20
2023-01-07T15:56:03.196Z,2.20
2023-01-07T16:01:05.091Z,2.20
2023-01-07T16:06:19.888Z,2.20
2023-01-07T16:11:25.734Z,2.20
2023-01-07T16:16:28.484Z,2.08
2023-01-07T16:21:35.534Z,2.42
2023-01-07T16:26:36.943Z,2.63
2023-01-07T16:31:38.452Z,2.28
2023-01-07T16:36:43.517Z,2.20
2023-01-07T16:41:45.076Z,2.40
2023-01-07T16:47:04.698Z,2.55
2023-01-07T16:52:07.287Z,2.42
2023-01-07T16:57:11.544Z,3.17
2023-01-07T17:02:27.126Z,2.70
2023-01-07T17:07:28.862Z,2.35
2023-01-07T17:12:36.172Z,2.90
2023-01-07T17:17:37.664Z,2.40
2023-01-07T17:22:39.493Z,2.55
2023-01-07T17:27:46.329Z,2.55
2023-01-07T17:32:50.079Z,2.42
2023-01-07T17:37:52.236Z,2.50
2023-01-07T17:43:12.242Z,2.63
2023-01-07T17:48:13.926Z,2.70
2023-01-07T17:53:21.690Z,2.67
2023-01-07T17:58:27.991Z,3.00
2023-01-07T18:03:29.568Z,2.88
2023-01-07T18:08:56.979Z,2.58
2023-01-07T18:13:58.463Z,2.92
2023-01-07T18:19:00.197Z,2.80
2023-01-07T18:24:01.674Z,2.63
2023-01-07T18:29:03.147Z,2.70
2023-01-07T18:34:04.580Z,2.90
2023-01-07T18:39:06.694Z,2.85
2023-01-07T18:44:08.215Z,3.13
2023-01-07T18:49:10.682Z,2.95
2023-01-07T18:54:12.147Z,3.10
2023-01-07T18:59:13.780Z,3.20
2023-01-07T19:04:15.250Z,3.30
2023-01-07T19:09:16.845Z,3.30
2023-01-07T19:14:18.271Z,2.80
2023-01-07T19:19:19.685Z,3.20
2023-01-07T19:24:21.842Z,3.10
2023-01-07T19:29:23.234Z,3.17
2023-01-07T19:34:24.665Z,3.20
2023-01-07T19:39:26.219Z,3.47
2023-01-07T19:44:27.695Z,3.20
2023-01-07T19:49:29.985Z,3.10
2023-01-07T19:54:31.449Z,3.20
2023-01-07T19:59:34.054Z,3.20
2023-01-07T20:04:35.506Z,3.15
2023-01-07T20:09:37.009Z,3.50
2023-01-07T20:14:38.478Z,3.33
2023-01-07T20:19:39.913Z,3.30
2023-01-07T20:24:41.428Z,3.88
2023-01-07T20:29:43.020Z,3.33
2023-01-07T20:34:44.491Z,3.90
2023-01-07T20:39:45.906Z,3.40
2023-01-07T20:44:47.927Z,3.30
2023-01-07T20:49:49.403Z,3.60
2023-01-07T20:54:50.856Z,3.70
2023-01-07T20:59:52.344Z,3.70
2023-01-07T21:04:53.857Z,3.75
2023-01-07T21:09:55.315Z,4.07
2023-01-07T21:14:56.771Z,3.33
2023-01-07T21:19:58.254Z,3.35
2023-01-07T21:24:59.736Z,3.75
2023-01-07T21:30:01.605Z,3.50
2023-01-07T21:35:03.829Z,3.90
2023-01-07T21:40:06.096Z,3.63
2023-01-07T21:45:07.839Z,3.67
2023-01-07T21:50:09.684Z,4.15
2023-01-07T21:55:11.159Z,3.65
2023-01-07T22:00:12.953Z,4.03
2023-01-07T22:05:14.391Z,4.15
2023-01-07T22:10:15.931Z,3.88
2023-01-07T22:15:17.443Z,4.05
2023-01-07T22:20:18.913Z,3.90
2023-01-07T22:25:20.407Z,4.05
2023-01-07T22:30:22.747Z,4.35
2023-01-07T22:35:24.725Z,3.70
2023-01-07T22:40:26.153Z,3.95
2023-01-07T22:45:35.121Z,4.68
2023-01-07T22:50:37.120Z,3.97
2023-01-07T22:55:40.633Z,4.40
2023-01-07T23:01:02.397Z,3.90
2023-01-07T23:06:04.378Z,3.65
2023-01-07T23:11:05.957Z,4.28
2023-01-07T23:16:07.792Z,4.05
2023-01-07T23:21:09.306Z,3.75
2023-01-07T23:26:14.360Z,4.07
2023-01-07T23:31:15.809Z,3.70
2023-01-07T23:36:17.294Z,4.10
2023-01-07T23:41:18.906Z,3.80
2023-01-07T23:46:20.346Z,4.30
2023-01-07T23:51:21.940Z,3.72
2023-01-07T23:56:23.585Z,3.72
